Time;durP1;ratioP1;P1;durP2;ratioP2;P2;SDS_P1;SDS_P2;PMS_P1;PMS_P2;Temp;Humidity;BMP_temperature;BMP_pressure;BME280_temperature;BME280_humidity;BME280_pressure;Samples;Min_cycle;Max_cycle;Signal;HPM_P1;HPM_P2
2021/04/28 00:00:00;;;;;;;;;;;19.60;55.90;;;;;;5054629;28;1643;-67
2021/04/28 00:02:25;;;;;;;;;;;19.60;55.90;;;;;;5054411;28;1902;-67
2021/04/28 00:04:51;;;;;;;;;;;19.60;55.90;;;;;;5016623;28;1628;-67
2021/04/28 00:07:16;;;;;;;;;;;19.60;56.00;;;;;;5051138;28;1467;-70
2021/04/28 00:09:42;;;;;;;;;;;19.60;56.00;;;;;;5054353;28;1393;-69
2021/04/28 00:12:07;;;;;;;;;;;19.60;56.00;;;;;;5036396;28;1388;-69
2021/04/28 00:14:33;;;;;;;;;;;19.60;56.00;;;;;;5053863;28;1523;-68
2021/04/28 00:16:59;;;;;;;;;;;19.60;56.00;;;;;;5036017;28;1645;-68
2021/04/28 00:19:24;;;;;;;;;;;19.50;56.00;;;;;;5036367;28;1663;-69
2021/04/28 00:21:50;;;;;;;;;;;19.50;56.00;;;;;;5053891;28;1203;-69
2021/04/28 00:24:15;;;;;;;;;;;19.50;56.10;;;;;;5054057;28;1906;-69
2021/04/28 00:26:41;;;;;;;;;;;19.50;56.10;;;;;;5035756;28;1667;-69
2021/04/28 00:29:06;;;;;;;;;;;19.50;56.10;;;;;;5054051;28;1342;-69
2021/04/28 00:31:32;;;;;;;;;;;19.50;56.10;;;;;;5053765;28;1453;-70
2021/04/28 00:33:57;;;;;;;;;;;19.50;56.10;;;;;;5053895;28;1373;-69
2021/04/28 00:36:23;;;;;;;;;;;19.50;56.20;;;;;;5052807;28;1677;-70
2021/04/28 00:38:48;;;;;;;;;;;19.50;56.20;;;;;;5045953;28;1219;-70
2021/04/28 00:41:13;;;;;;;;;;;19.50;56.20;;;;;;5027018;28;1244;-69
2021/04/28 00:43:39;;;;;;;;;;;19.50;56.20;;;;;;5042107;28;1949;-69
2021/04/28 00:46:05;;;;;;;;;;;19.50;56.20;;;;;;5043308;28;1232;-68
2021/04/28 00:48:30;;;;;;;;;;;19.50;56.20;;;;;;5043682;28;1267;-69
2021/04/28 00:50:55;;;;;;;;;;;19.40;56.20;;;;;;5046574;28;1161;-69
2021/04/28 00:53:21;;;;;;;;;;;19.50;56.30;;;;;;5045131;28;1149;-69
2021/04/28 00:55:47;;;;;;;;;;;19.40;56.30;;;;;;5053927;28;1406;-69
2021/04/28 00:58:12;;;;;;;;;;;19.50;56.30;;;;;;5036697;28;1624;-70
2021/04/28 01:00:38;;;;;;;;;;;19.40;56.30;;;;;;5036749;28;1536;-70
2021/04/28 01:03:04;;;;;;;;;;;19.40;56.30;;;;;;5036462;28;1941;-70
2021/04/28 01:05:29;;;;;;;;;;;19.40;56.30;;;;;;5053792;28;1720;-70
2021/04/28 01:07:55;;;;;;;;;;;19.50;56.40;;;;;;5036604;28;1742;-70
2021/04/28 01:10:21;;;;;;;;;;;19.40;56.30;;;;;;5036338;28;1470;-70
2021/04/28 01:12:47;;;;;;;;;;;19.40;56.40;;;;;;5054162;28;1533;-70
2021/04/28 01:15:13;;;;;;;;;;;19.40;56.40;;;;;;5053583;28;1439;-70
2021/04/28 01:17:38;;;;;;;;;;;19.40;56.40;;;;;;5036267;28;1690;-70
2021/04/28 01:20:08;;;;;;;;;;;19.40;56.40;;;;;;5053866;28;1467;-70
2021/04/28 01:22:37;;;;;;;;;;;19.40;56.40;;;;;;5053738;28;1949;-70
2021/04/28 01:25:02;;;;;;;;;;;19.40;56.40;;;;;;5053762;28;1583;-70
2021/04/28 01:27:28;;;;;;;;;;;19.40;56.40;;;;;;5053894;28;1352;-70
2021/04/28 01:29:53;;;;;;;;;;;19.40;56.40;;;;;;5036110;28;1445;-70
2021/04/28 01:32:19;;;;;;;;;;;19.40;56.40;;;;;;5035928;28;1783;-70
2021/04/28 01:34:45;;;;;;;;;;;19.40;56.50;;;;;;5035693;28;1446;-71
2021/04/28 01:37:10;;;;;;;;;;;19.30;56.40;;;;;;5035558;28;1397;-70
2021/04/28 01:39:36;;;;;;;;;;;19.40;56.50;;;;;;5035871;28;1736;-70
2021/04/28 01:42:01;;;;;;;;;;;19.30;56.50;;;;;;5035714;28;1692;-70
2021/04/28 01:44:27;;;;;;;;;;;19.30;56.50;;;;;;5035474;28;2022;-70
2021/04/28 01:46:53;;;;;;;;;;;19.30;56.50;;;;;;5053090;28;1374;-71
2021/04/28 01:49:18;;;;;;;;;;;19.30;56.50;;;;;;5035261;28;1381;-70
2021/04/28 01:51:44;;;;;;;;;;;19.30;56.50;;;;;;5035722;28;1377;-69
2021/04/28 01:54:17;;;;;;;;;;;19.30;56.50;;;;;;5035438;28;1433;-70
2021/04/28 01:56:43;;;;;;;;;;;19.30;56.60;;;;;;5053140;28;1602;-69
2021/04/28 01:59:09;;;;;;;;;;;19.30;56.60;;;;;;5032693;28;1391;-69
2021/04/28 02:01:35;;;;;;;;;;;19.30;56.60;;;;;;5035487;28;1096;-70
2021/04/28 02:04:00;;;;;;;;;;;19.30;56.60;;;;;;5035133;28;1906;-70
2021/04/28 02:06:25;;;;;;;;;;;19.30;56.70;;;;;;5035135;28;1557;-70
2021/04/28 02:08:51;;;;;;;;;;;19.30;56.70;;;;;;5035334;28;1440;-70
2021/04/28 02:11:16;;;;;;;;;;;19.30;56.70;;;;;;5053347;28;1458;-70
2021/04/28 02:13:43;;;;;;;;;;;19.30;56.70;;;;;;5035050;28;1680;-70
2021/04/28 02:16:09;;;;;;;;;;;19.30;56.70;;;;;;5034719;28;1580;-70
2021/04/28 02:18:34;;;;;;;;;;;19.30;56.70;;;;;;5035177;28;1747;-70
2021/04/28 02:21:03;;;;;;;;;;;19.30;56.70;;;;;;5035306;28;1561;-70
2021/04/28 02:23:33;;;;;;;;;;;19.20;56.70;;;;;;5052740;28;1902;-70
2021/04/28 02:25:59;;;;;;;;;;;19.30;56.80;;;;;;5035041;28;1646;-70
2021/04/28 02:28:24;;;;;;;;;;;19.20;56.70;;;;;;5053024;28;1406;-70
2021/04/28 02:30:50;;;;;;;;;;;19.20;56.70;;;;;;5052847;28;1710;-70
2021/04/28 02:33:16;;;;;;;;;;;19.20;56.70;;;;;;5035145;28;1618;-70
2021/04/28 02:35:41;;;;;;;;;;;19.30;56.80;;;;;;5052597;28;1390;-70
2021/04/28 02:38:18;;;;;;;;;;;19.30;56.80;;;;;;5034982;28;1692;-70
2021/04/28 02:40:44;;;;;;;;;;;19.20;56.80;;;;;;5052864;28;1612;-70
2021/04/28 02:43:10;;;;;;;;;;;19.20;56.80;;;;;;5034928;28;1953;-70
2021/04/28 02:45:38;;;;;;;;;;;19.20;56.80;;;;;;5052460;28;1208;-70
2021/04/28 02:48:07;;;;;;;;;;;19.20;56.80;;;;;;5035177;28;1806;-70
2021/04/28 02:50:32;;;;;;;;;;;19.20;56.90;;;;;;5052849;28;1439;-69
2021/04/28 02:52:58;;;;;;;;;;;19.20;56.80;;;;;;5034813;28;1452;-69
2021/04/28 02:55:23;;;;;;;;;;;19.20;56.90;;;;;;5052333;28;1368;-68
2021/04/28 02:57:49;;;;;;;;;;;19.20;56.90;;;;;;5052483;28;1728;-69
2021/04/28 03:00:16;;;;;;;;;;;19.20;56.90;;;;;;5054427;28;1388;-68
2021/04/28 03:02:41;;;;;;;;;;;19.20;56.90;;;;;;5056450;28;1910;-68
2021/04/28 03:05:11;;;;;;;;;;;19.20;56.90;;;;;;5038587;28;1447;-69
2021/04/28 03:07:37;;;;;;;;;;;19.20;56.90;;;;;;5025342;28;1576;-69
2021/04/28 03:10:02;;;;;;;;;;;19.20;56.90;;;;;;5056576;28;1185;-69
2021/04/28 03:12:28;;;;;;;;;;;19.20;57.00;;;;;;5056672;28;1365;-70
2021/04/28 03:14:53;;;;;;;;;;;19.20;57.00;;;;;;5038265;28;1524;-70
2021/04/28 03:17:19;;;;;;;;;;;19.20;57.00;;;;;;5038098;28;1652;-70
2021/04/28 03:19:44;;;;;;;;;;;19.20;57.00;;;;;;5038695;28;1465;-70
2021/04/28 03:22:10;;;;;;;;;;;19.20;57.00;;;;;;5038246;28;1723;-70
2021/04/28 03:24:36;;;;;;;;;;;19.20;57.00;;;;;;5056119;28;1973;-71
2021/04/28 03:27:08;;;;;;;;;;;19.10;57.00;;;;;;5038037;28;1655;-70
2021/04/28 03:29:34;;;;;;;;;;;19.10;56.90;;;;;;5038237;28;1476;-70
2021/04/28 03:31:59;;;;;;;;;;;19.10;56.90;;;;;;5056136;28;1573;-70
2021/04/28 03:34:25;;;;;;;;;;;19.10;57.00;;;;;;5038298;28;1467;-70
2021/04/28 03:36:50;;;;;;;;;;;19.10;57.00;;;;;;5055702;28;1655;-70
2021/04/28 03:39:16;;;;;;;;;;;19.10;56.90;;;;;;5056115;28;1491;-69
2021/04/28 03:41:41;;;;;;;;;;;19.10;56.90;;;;;;5037960;28;1530;-69
2021/04/28 03:44:06;;;;;;;;;;;19.20;56.90;;;;;;5055612;28;1969;-69
2021/04/28 03:46:32;;;;;;;;;;;19.20;56.80;;;;;;5055637;28;1433;-69
2021/04/28 03:48:57;;;;;;;;;;;19.30;56.80;;;;;;5037882;28;1719;-69
2021/04/28 03:51:23;;;;;;;;;;;19.30;56.60;;;;;;5055802;28;1432;-69
2021/04/28 03:53:48;;;;;;;;;;;19.40;56.50;;;;;;5055682;28;1458;-70
2021/04/28 03:56:14;;;;;;;;;;;19.50;56.30;;;;;;5055174;28;1798;-70
2021/04/28 03:58:39;;;;;;;;;;;19.60;56.20;;;;;;5037581;28;1464;-70
2021/04/28 04:01:05;;;;;;;;;;;19.70;55.90;;;;;;5055639;28;1710;-71
2021/04/28 04:03:30;;;;;;;;;;;19.80;55.70;;;;;;5055393;28;1910;-71
2021/04/28 04:05:55;;;;;;;;;;;19.90;55.50;;;;;;5055192;28;1423;-71
2021/04/28 04:08:21;;;;;;;;;;;20.00;55.20;;;;;;5037431;28;1392;-71
2021/04/28 04:10:47;;;;;;;;;;;20.10;55.00;;;;;;5054945;28;1482;-71
2021/04/28 04:13:12;;;;;;;;;;;20.20;54.80;;;;;;5054931;28;1647;-71
2021/04/28 04:15:38;;;;;;;;;;;20.30;54.70;;;;;;5041611;28;1658;-71
2021/04/28 04:18:03;;;;;;;;;;;20.40;54.50;;;;;;5055113;28;1138;-71
2021/04/28 04:20:29;;;;;;;;;;;20.40;54.30;;;;;;5037501;28;1444;-71
2021/04/28 04:22:54;;;;;;;;;;;20.50;54.20;;;;;;5054990;28;1894;-71
2021/04/28 04:25:19;;;;;;;;;;;20.60;54.10;;;;;;5054336;28;1694;-71
2021/04/28 04:27:48;;;;;;;;;;;20.60;54.00;;;;;;5055009;28;1380;-71
2021/04/28 04:30:13;;;;;;;;;;;20.60;53.80;;;;;;5055099;28;1498;-71
2021/04/28 04:32:39;;;;;;;;;;;20.70;53.80;;;;;;5037325;28;1648;-68
2021/04/28 04:35:04;;;;;;;;;;;20.70;53.70;;;;;;5054735;28;1802;-70
2021/04/28 04:37:30;;;;;;;;;;;20.70;53.70;;;;;;5036721;28;1387;-71
2021/04/28 04:39:55;;;;;;;;;;;20.80;53.60;;;;;;5037007;28;1761;-70
2021/04/28 04:42:21;;;;;;;;;;;20.80;53.70;;;;;;5054649;28;1890;-70
2021/04/28 04:44:46;;;;;;;;;;;20.80;53.50;;;;;;5020376;28;1664;-71
2021/04/28 04:47:12;;;;;;;;;;;20.90;53.50;;;;;;5054274;28;1741;-70
2021/04/28 04:49:39;;;;;;;;;;;20.90;53.40;;;;;;5054636;28;1425;-70
2021/04/28 04:52:05;;;;;;;;;;;20.90;53.40;;;;;;5054514;28;1449;-70
2021/04/28 04:54:30;;;;;;;;;;;21.00;53.40;;;;;;5054298;28;1449;-71
2021/04/28 04:56:56;;;;;;;;;;;21.00;53.30;;;;;;5054206;28;1455;-70
2021/04/28 04:59:22;;;;;;;;;;;21.00;53.20;;;;;;5054410;28;1415;-71
2021/04/28 05:01:47;;;;;;;;;;;21.10;53.30;;;;;;5054545;28;1391;-71
2021/04/28 05:04:12;;;;;;;;;;;21.10;53.20;;;;;;5036209;28;1977;-71
2021/04/28 05:06:38;;;;;;;;;;;21.10;53.20;;;;;;5053900;28;1520;-70
2021/04/28 05:09:03;;;;;;;;;;;21.10;53.10;;;;;;5054104;28;1480;-69
2021/04/28 05:11:29;;;;;;;;;;;21.10;53.20;;;;;;5036616;28;1109;-70
2021/04/28 05:13:54;;;;;;;;;;;21.20;53.10;;;;;;5036038;28;1268;-70
2021/04/28 05:16:20;;;;;;;;;;;21.20;53.10;;;;;;5053119;28;1060;-69
2021/04/28 05:18:46;;;;;;;;;;;21.20;53.10;;;;;;5040439;28;1887;-69
2021/04/28 05:21:11;;;;;;;;;;;21.20;53.00;;;;;;5065293;28;1084;-68
2021/04/28 05:23:36;;;;;;;;;;;21.20;53.00;;;;;;5054613;28;1967;-68
2021/04/28 05:26:02;;;;;;;;;;;21.20;52.90;;;;;;5044953;28;1264;-69
2021/04/28 05:28:27;;;;;;;;;;;21.20;52.90;;;;;;5050367;28;994;-68
2021/04/28 05:30:53;;;;;;;;;;;21.30;53.00;;;;;;5059124;28;2078;-68
2021/04/28 05:33:18;;;;;;;;;;;21.20;52.90;;;;;;5061845;28;1679;-70
2021/04/28 05:35:44;;;;;;;;;;;21.30;53.00;;;;;;5047961;28;1642;-68
2021/04/28 05:38:09;;;;;;;;;;;21.30;53.00;;;;;;5033412;28;1703;-69
2021/04/28 05:40:34;;;;;;;;;;;21.30;53.00;;;;;;5039264;28;1160;-69
2021/04/28 05:43:00;;;;;;;;;;;21.30;53.10;;;;;;5050602;28;1961;-69
2021/04/28 05:45:25;;;;;;;;;;;21.30;53.10;;;;;;5035394;28;1804;-68
2021/04/28 05:47:51;;;;;;;;;;;21.20;53.10;;;;;;5050483;28;1178;-68
2021/04/28 05:50:16;;;;;;;;;;;21.20;53.10;;;;;;5052198;28;1122;-68
2021/04/28 05:52:42;;;;;;;;;;;21.20;53.10;;;;;;5022209;28;1371;-67
2021/04/28 05:55:07;;;;;;;;;;;21.20;53.20;;;;;;5065150;22;2491;-63
2021/04/28 05:57:33;;;;;;;;;;;21.20;53.20;;;;;;5051696;28;1261;-63
2021/04/28 05:59:59;;;;;;;;;;;21.20;53.30;;;;;;5053437;28;1678;-65
2021/04/28 06:02:24;;;;;;;;;;;21.20;53.30;;;;;;5035462;28;1917;-65
2021/04/28 06:04:50;;;;;;;;;;;21.10;53.30;;;;;;5049298;28;1341;-66
2021/04/28 06:07:15;;;;;;;;;;;21.10;53.40;;;;;;5032965;28;1670;-65
2021/04/28 06:09:41;;;;;;;;;;;21.10;53.50;;;;;;5032985;28;1391;-66
2021/04/28 06:12:06;;;;;;;;;;;21.10;53.50;;;;;;5033235;28;1460;-65
2021/04/28 06:14:31;;;;;;;;;;;21.10;53.50;;;;;;5015895;28;1482;-66
2021/04/28 06:16:58;;;;;;;;;;;21.10;53.60;;;;;;5033115;28;1355;-66
2021/04/28 06:19:23;;;;;;;;;;;21.00;53.60;;;;;;5032992;28;1175;-66
2021/04/28 06:21:49;;;;;;;;;;;21.00;53.60;;;;;;5015456;28;1413;-66
2021/04/28 06:24:14;;;;;;;;;;;21.00;53.70;;;;;;5032691;28;1898;-66
2021/04/28 06:26:41;;;;;;;;;;;21.00;53.70;;;;;;5032824;28;1752;-66
2021/04/28 06:29:06;;;;;;;;;;;21.00;53.80;;;;;;5031710;28;1687;-66
2021/04/28 06:31:32;;;;;;;;;;;20.90;53.80;;;;;;5032913;28;1430;-65
2021/04/28 06:33:57;;;;;;;;;;;20.90;53.80;;;;;;5032694;28;1380;-65
2021/04/28 06:36:23;;;;;;;;;;;20.90;53.90;;;;;;5032641;28;1678;-65
2021/04/28 06:38:48;;;;;;;;;;;20.90;54.00;;;;;;5032652;28;1686;-65
2021/04/28 06:41:14;;;;;;;;;;;20.90;54.00;;;;;;5032856;28;1657;-64
2021/04/28 06:43:39;;;;;;;;;;;20.80;54.00;;;;;;5032772;28;1898;-63
2021/04/28 06:46:05;;;;;;;;;;;20.80;54.00;;;;;;5032483;28;1646;-63
2021/04/28 06:48:30;;;;;;;;;;;20.80;54.10;;;;;;5032658;28;1700;-62
2021/04/28 06:50:56;;;;;;;;;;;20.80;54.10;;;;;;5032813;28;1179;-64
2021/04/28 06:53:22;;;;;;;;;;;20.80;54.20;;;;;;5032469;28;1668;-64
2021/04/28 06:55:47;;;;;;;;;;;20.80;54.20;;;;;;5031901;28;1456;-64
2021/04/28 06:58:13;;;;;;;;;;;20.80;54.30;;;;;;5032560;28;1659;-66
2021/04/28 07:00:38;;;;;;;;;;;20.70;54.30;;;;;;5031443;28;1522;-66
2021/04/28 07:03:04;;;;;;;;;;;20.70;54.30;;;;;;5032630;28;1914;-66
2021/04/28 07:05:29;;;;;;;;;;;20.70;54.40;;;;;;5032431;28;1474;-66
2021/04/28 07:07:55;;;;;;;;;;;20.70;54.40;;;;;;5023801;28;1441;-66
2021/04/28 07:10:20;;;;;;;;;;;20.70;54.40;;;;;;5028408;28;1183;-67
2021/04/28 07:12:46;;;;;;;;;;;20.70;54.50;;;;;;5032609;28;1366;-66
2021/04/28 07:15:12;;;;;;;;;;;20.60;54.50;;;;;;5045524;28;1322;-66
2021/04/28 07:17:37;;;;;;;;;;;20.70;54.50;;;;;;5032618;28;1010;-66
2021/04/28 07:20:03;;;;;;;;;;;20.60;54.50;;;;;;5031483;28;1667;-66
2021/04/28 07:22:29;;;;;;;;;;;20.60;54.50;;;;;;5031057;28;1906;-66
2021/04/28 07:24:54;;;;;;;;;;;20.60;54.60;;;;;;5032336;28;1329;-66
2021/04/28 07:27:20;;;;;;;;;;;20.60;54.60;;;;;;5032556;28;1375;-66
2021/04/28 07:29:46;;;;;;;;;;;20.60;54.70;;;;;;5031400;28;1240;-67
2021/04/28 07:32:11;;;;;;;;;;;20.60;54.70;;;;;;5032520;28;1380;-65
2021/04/28 07:34:37;;;;;;;;;;;20.60;54.80;;;;;;5032272;28;1672;-65
2021/04/28 07:37:05;;;;;;;;;;;20.50;54.70;;;;;;5031930;28;1065;-67
2021/04/28 07:39:31;;;;;;;;;;;20.50;54.80;;;;;;5030502;28;1220;-66
2021/04/28 07:41:56;;;;;;;;;;;20.50;54.80;;;;;;5020870;28;1682;-67
2021/04/28 07:44:24;;;;;;;;;;;20.50;54.80;;;;;;5031019;28;1949;-66
2021/04/28 07:46:50;;;;;;;;;;;20.50;54.90;;;;;;5034304;28;1393;-66
2021/04/28 07:49:15;;;;;;;;;;;20.50;54.90;;;;;;5035858;28;1052;-66
2021/04/28 07:51:41;;;;;;;;;;;20.40;54.90;;;;;;5035793;28;1693;-66
2021/04/28 07:54:06;;;;;;;;;;;20.40;54.90;;;;;;5035723;28;1381;-66
2021/04/28 07:56:32;;;;;;;;;;;20.40;55.00;;;;;;5035260;28;1199;-66
2021/04/28 07:58:57;;;;;;;;;;;20.40;55.00;;;;;;5035902;28;1350;-66
2021/04/28 08:01:23;;;;;;;;;;;20.40;55.10;;;;;;5035513;28;1332;-67
2021/04/28 08:03:48;;;;;;;;;;;20.40;55.10;;;;;;5034238;28;1959;-67
2021/04/28 08:06:14;;;;;;;;;;;20.40;55.10;;;;;;5034909;28;1273;-66
2021/04/28 08:08:39;;;;;;;;;;;20.40;55.20;;;;;;5034245;28;1445;-67
2021/04/28 08:11:05;;;;;;;;;;;20.40;55.20;;;;;;5034146;28;1171;-66
2021/04/28 08:13:30;;;;;;;;;;;20.40;55.20;;;;;;5017512;28;1191;-66
2021/04/28 08:15:55;;;;;;;;;;;20.40;55.20;;;;;;5027203;28;1185;-65
2021/04/28 08:18:21;;;;;;;;;;;20.30;55.20;;;;;;5015455;28;1409;-66
2021/04/28 08:20:47;;;;;;;;;;;20.30;55.20;;;;;;5034028;28;1310;-65
2021/04/28 08:23:13;;;;;;;;;;;20.30;55.30;;;;;;5045880;28;1909;-65
2021/04/28 08:25:38;;;;;;;;;;;20.30;55.30;;;;;;5032947;28;1269;-66
2021/04/28 08:28:04;;;;;;;;;;;20.30;55.30;;;;;;5016640;28;1403;-65
2021/04/28 08:30:29;;;;;;;;;;;20.30;55.40;;;;;;5016738;28;1365;-66
2021/04/28 08:32:55;;;;;;;;;;;20.30;55.40;;;;;;5018293;28;1426;-66
2021/04/28 08:35:24;;;;;;;;;;;20.30;55.40;;;;;;4999863;28;1485;-67
2021/04/28 08:37:49;;;;;;;;;;;20.30;55.40;;;;;;5032704;28;1174;-65
2021/04/28 08:40:15;;;;;;;;;;;20.30;55.40;;;;;;5016445;28;2110;-65
2021/04/28 08:42:41;;;;;;;;;;;20.20;55.40;;;;;;5033840;28;1961;-65
2021/04/28 08:45:07;;;;;;;;;;;20.20;55.40;;;;;;5033625;28;1212;-65
2021/04/28 08:47:32;;;;;;;;;;;20.20;55.40;;;;;;5025952;28;1800;-66
2021/04/28 08:49:58;;;;;;;;;;;20.20;55.40;;;;;;5039424;28;1367;-64
2021/04/28 08:52:24;;;;;;;;;;;20.20;55.40;;;;;;5015433;28;1457;-65
2021/04/28 08:54:49;;;;;;;;;;;20.20;55.40;;;;;;5032358;28;1339;-65
2021/04/28 08:57:14;;;;;;;;;;;20.20;55.40;;;;;;5030526;28;1201;-65
2021/04/28 08:59:40;;;;;;;;;;;20.20;55.40;;;;;;5032369;28;1429;-65
2021/04/28 09:02:15;;;;;;;;;;;20.20;55.50;;;;;;5031659;28;1398;-66
2021/04/28 09:04:40;;;;;;;;;;;20.20;55.50;;;;;;5031570;28;1969;-65
2021/04/28 09:07:06;;;;;;;;;;;20.20;55.50;;;;;;5030234;28;1885;-65
2021/04/28 09:09:31;;;;;;;;;;;20.10;55.50;;;;;;5033201;28;1163;-65
2021/04/28 09:11:58;;;;;;;;;;;20.20;55.50;;;;;;5015508;28;1178;-65
2021/04/28 09:14:24;;;;;;;;;;;20.10;55.50;;;;;;5033561;28;1374;-65
2021/04/28 09:17:00;;;;;;;;;;;20.10;55.50;;;;;;5014701;28;1351;-65
2021/04/28 09:19:29;;;;;;;;;;;20.10;55.50;;;;;;5033104;28;1705;-65
2021/04/28 09:22:00;;;;;;;;;;;20.10;55.50;;;;;;5035159;28;1477;-65
2021/04/28 09:24:28;;;;;;;;;;;20.10;55.60;;;;;;5040072;28;1894;-65
2021/04/28 09:26:54;;;;;;;;;;;20.10;55.60;;;;;;5031201;28;1373;-65
2021/04/28 09:29:20;;;;;;;;;;;20.10;55.60;;;;;;5032540;28;1389;-65
2021/04/28 09:31:59;;;;;;;;;;;20.10;55.60;;;;;;5014467;28;1670;-65
2021/04/28 09:34:25;;;;;;;;;;;20.10;55.70;;;;;;5032406;28;1653;-65
2021/04/28 09:36:58;;;;;;;;;;;20.10;55.70;;;;;;5031896;28;1451;-64
2021/04/28 09:39:23;;;;;;;;;;;20.10;55.70;;;;;;5032401;28;1136;-65
2021/04/28 09:41:53;;;;;;;;;;;20.10;55.70;;;;;;5032638;28;1453;-65
2021/04/28 09:44:18;;;;;;;;;;;20.10;55.70;;;;;;5015059;28;1902;-65
2021/04/28 09:46:53;;;;;;;;;;;20.00;55.70;;;;;;5031716;28;1644;-65
2021/04/28 09:49:18;;;;;;;;;;;20.00;55.70;;;;;;5032279;28;997;-64
2021/04/28 09:51:44;;;;;;;;;;;20.00;52.10;;;;;;5031079;28;910;-64
2021/04/28 09:54:10;;;;;;;;;;;19.90;47.30;;;;;;5013875;28;1918;-64
2021/04/28 09:56:39;;;;;;;;;;;19.90;42.40;;;;;;5046838;28;1570;-66
2021/04/28 09:59:04;;;;;;;;;;;19.80;41.70;;;;;;5035475;28;1120;-66
2021/04/28 10:01:30;;;;;;;;;;;19.80;41.20;;;;;;5030835;28;1583;-64
2021/04/28 10:03:56;;;;;;;;;;;19.70;41.40;;;;;;5014165;28;1906;-64
2021/04/28 10:06:39;;;;;;;;;;;19.70;41.00;;;;;;5031737;28;1763;-64
2021/04/28 10:09:07;;;;;;;;;;;19.60;40.50;;;;;;5031011;28;1641;-64
2021/04/28 10:11:32;;;;;;;;;;;19.60;40.20;;;;;;5030855;28;1419;-64
2021/04/28 10:13:58;;;;;;;;;;;19.60;40.00;;;;;;5037290;28;1470;-64
2021/04/28 10:16:23;;;;;;;;;;;19.60;39.50;;;;;;5039179;28;1435;-64
2021/04/28 10:18:48;;;;;;;;;;;19.50;39.30;;;;;;5031772;28;1531;-64
2021/04/28 10:21:14;;;;;;;;;;;19.50;37.70;;;;;;5014163;28;1711;-64
2021/04/28 10:23:39;;;;;;;;;;;19.50;37.20;;;;;;5043078;28;1965;-64
2021/04/28 10:26:08;;;;;;;;;;;19.50;36.20;;;;;;5030175;28;1386;-64
2021/04/28 10:28:33;;;;;;;;;;;19.40;38.00;;;;;;5030629;28;1733;-64
2021/04/28 10:30:59;;;;;;;;;;;19.40;40.00;;;;;;5030227;28;1435;-64
2021/04/28 10:33:25;;;;;;;;;;;19.50;41.60;;;;;;5030328;28;1599;-64
2021/04/28 10:35:51;;;;;;;;;;;19.40;42.50;;;;;;5030271;28;1350;-64
2021/04/28 10:38:20;;;;;;;;;;;19.40;43.20;;;;;;5013875;28;1234;-64
2021/04/28 10:40:45;;;;;;;;;;;19.50;44.00;;;;;;5013914;28;1017;-65
2021/04/28 10:43:11;;;;;;;;;;;19.50;44.70;;;;;;5036019;28;1965;-64
2021/04/28 10:45:37;;;;;;;;;;;19.50;45.20;;;;;;5005902;28;1375;-64
2021/04/28 10:48:03;;;;;;;;;;;19.50;45.50;;;;;;5035468;28;1192;-64
2021/04/28 10:50:38;;;;;;;;;;;19.50;46.00;;;;;;5029263;28;1260;-64
2021/04/28 10:53:08;;;;;;;;;;;19.50;46.40;;;;;;5026022;28;1216;-64
2021/04/28 10:55:47;;;;;;;;;;;19.50;46.80;;;;;;5009780;28;1346;-63
2021/04/28 10:58:34;;;;;;;;;;;19.50;47.20;;;;;;5025218;28;1292;-63
2021/04/28 11:01:00;;;;;;;;;;;19.50;47.50;;;;;;5026967;28;1053;-63
2021/04/28 11:03:37;;;;;;;;;;;19.50;47.90;;;;;;5025327;28;1898;-63
2021/04/28 11:06:25;;;;;;;;;;;19.50;48.20;;;;;;5025898;28;1359;-65
2021/04/28 11:09:07;;;;;;;;;;;19.50;48.50;;;;;;5025517;28;1221;-62
2021/04/28 11:11:33;;;;;;;;;;;19.50;48.80;;;;;;5029987;28;1344;-63
2021/04/28 11:14:17;;;;;;;;;;;19.50;48.90;;;;;;5024635;28;1265;-63
2021/04/28 11:16:43;;;;;;;;;;;19.50;49.10;;;;;;5035442;28;1424;-64
2021/04/28 11:19:21;;;;;;;;;;;19.50;49.40;;;;;;5022991;28;1146;-65
2021/04/28 11:22:07;;;;;;;;;;;19.50;49.50;;;;;;5033807;28;1894;-66
2021/04/28 11:24:51;;;;;;;;;;;19.50;49.70;;;;;;5030389;28;1886;-68
2021/04/28 11:27:35;;;;;;;;;;;19.50;49.90;;;;;;5025850;28;1848;-66
2021/04/28 11:30:00;;;;;;;;;;;19.50;50.10;;;;;;5035124;28;1810;-68
2021/04/28 11:32:27;;;;;;;;;;;19.50;50.30;;;;;;5035807;28;1209;-66
2021/04/28 11:34:53;;;;;;;;;;;19.50;50.50;;;;;;5033981;28;1318;-67
2021/04/28 11:37:18;;;;;;;;;;;19.50;50.60;;;;;;5020247;28;1331;-67
2021/04/28 11:39:44;;;;;;;;;;;19.50;50.70;;;;;;5014617;28;1058;-67
2021/04/28 11:42:13;;;;;;;;;;;19.50;50.80;;;;;;5026300;28;1163;-67
2021/04/28 11:44:49;;;;;;;;;;;19.50;50.90;;;;;;5034961;28;1910;-67
2021/04/28 11:47:22;;;;;;;;;;;19.40;51.00;;;;;;5010546;28;1245;-68
2021/04/28 11:49:52;;;;;;;;;;;19.40;51.10;;;;;;5010433;28;1324;-68
2021/04/28 11:52:17;;;;;;;;;;;19.40;51.20;;;;;;5029188;28;1174;-67
2021/04/28 11:54:44;;;;;;;;;;;19.40;51.30;;;;;;5024948;28;1264;-66
2021/04/28 11:57:09;;;;;;;;;;;19.40;51.40;;;;;;5068122;22;1972;-66
2021/04/28 11:59:36;;;;;;;;;;;19.40;51.50;;;;;;5031098;28;1082;-68
2021/04/28 12:02:02;;;;;;;;;;;19.40;51.60;;;;;;5026104;28;1242;-69
2021/04/28 12:04:27;;;;;;;;;;;19.40;51.60;;;;;;5045069;28;1902;-68
2021/04/28 12:06:54;;;;;;;;;;;19.40;51.80;;;;;;5045081;28;1363;-68
2021/04/28 12:09:23;;;;;;;;;;;19.40;51.80;;;;;;5046650;28;1383;-68
2021/04/28 12:11:49;;;;;;;;;;;19.50;52.00;;;;;;5030313;28;1197;-69
2021/04/28 12:14:24;;;;;;;;;;;19.40;52.00;;;;;;5036159;28;1319;-69
2021/04/28 12:16:53;;;;;;;;;;;19.40;52.10;;;;;;5053910;28;1404;-69
2021/04/28 12:19:19;;;;;;;;;;;19.40;52.10;;;;;;5054589;28;1178;-68
2021/04/28 12:22:10;;;;;;;;;;;19.40;52.20;;;;;;5054115;28;1218;-68
2021/04/28 12:24:40;;;;;;;;;;;19.40;52.20;;;;;;5048935;28;1953;-70
2021/04/28 12:27:24;;;;;;;;;;;19.40;52.30;;;;;;5035937;28;1812;-70
2021/04/28 12:29:57;;;;;;;;;;;19.40;52.40;;;;;;5053845;28;1647;-70
2021/04/28 12:32:23;;;;;;;;;;;19.40;52.40;;;;;;5053781;28;1238;-69
2021/04/28 12:34:49;;;;;;;;;;;19.40;52.50;;;;;;5053797;28;1629;-69
2021/04/28 12:37:16;;;;;;;;;;;19.40;52.60;;;;;;5053583;28;1859;-69
2021/04/28 12:39:55;;;;;;;;;;;19.40;52.60;;;;;;5036084;28;1618;-68
2021/04/28 12:42:34;;;;;;;;;;;19.40;52.60;;;;;;5035999;28;1659;-69
2021/04/28 12:45:00;;;;;;;;;;;19.40;52.70;;;;;;5002979;28;1886;-69
2021/04/28 12:47:30;;;;;;;;;;;19.40;52.70;;;;;;5047194;28;1421;-69
2021/04/28 12:50:12;;;;;;;;;;;19.40;52.80;;;;;;5035792;28;1370;-71
2021/04/28 12:52:38;;;;;;;;;;;19.40;52.80;;;;;;5035802;28;1696;-70
2021/04/28 12:55:23;;;;;;;;;;;19.40;52.90;;;;;;5053300;28;1353;-68
2021/04/28 12:57:59;;;;;;;;;;;19.40;52.90;;;;;;5044436;28;1394;-69
2021/04/28 13:00:24;;;;;;;;;;;19.40;53.00;;;;;;5053456;28;1419;-69
2021/04/28 13:03:09;;;;;;;;;;;19.30;53.00;;;;;;5053484;28;1926;-68
2021/04/28 13:05:35;;;;;;;;;;;19.30;53.10;;;;;;5040686;28;1366;-69
2021/04/28 13:08:19;;;;;;;;;;;19.40;53.10;;;;;;5034942;28;2750;-67
2021/04/28 13:10:59;;;;;;;;;;;19.40;53.20;;;;;;5050146;28;2053;-69
2021/04/28 13:13:28;;;;;;;;;;;19.30;53.20;;;;;;5044161;28;1802;-68
2021/04/28 13:15:53;;;;;;;;;;;19.40;53.30;;;;;;5034058;28;1740;-68
2021/04/28 13:18:19;;;;;;;;;;;19.30;53.30;;;;;;5053016;28;1448;-68
2021/04/28 13:20:44;;;;;;;;;;;19.30;53.30;;;;;;5044813;28;1595;-68
2021/04/28 13:23:14;;;;;;;;;;;19.30;53.30;;;;;;5048883;28;1914;-69
2021/04/28 13:25:49;;;;;;;;;;;19.30;53.30;;;;;;5052428;28;1347;-68
2021/04/28 13:28:33;;;;;;;;;;;19.30;53.40;;;;;;5034660;28;1727;-68
2021/04/28 13:31:14;;;;;;;;;;;19.30;54.00;;;;;;5053021;28;1562;-67
2021/04/28 13:33:40;;;;;;;;;;;19.30;53.50;;;;;;5052909;28;1345;-69
2021/04/28 13:36:05;;;;;;;;;;;19.30;53.50;;;;;;5034281;28;1450;-69
2021/04/28 13:38:44;;;;;;;;;;;19.30;53.60;;;;;;5052800;28;1638;-69
2021/04/28 13:41:10;;;;;;;;;;;19.30;53.60;;;;;;5052788;28;1366;-69
2021/04/28 13:43:36;;;;;;;;;;;19.30;53.60;;;;;;5033932;28;1906;-68
2021/04/28 13:46:01;;;;;;;;;;;19.30;53.70;;;;;;5051918;28;1643;-68
2021/04/28 13:48:26;;;;;;;;;;;19.30;53.70;;;;;;5043468;28;1433;-69
2021/04/28 13:50:52;;;;;;;;;;;19.30;53.70;;;;;;5052449;28;1682;-68
2021/04/28 13:53:18;;;;;;;;;;;19.30;53.80;;;;;;5052499;28;1564;-69
2021/04/28 13:55:43;;;;;;;;;;;19.30;53.80;;;;;;5034162;28;1209;-69
2021/04/28 13:58:08;;;;;;;;;;;19.30;53.80;;;;;;5052156;28;1212;-70
2021/04/28 14:00:34;;;;;;;;;;;19.30;53.80;;;;;;5051950;28;1306;-69
2021/04/28 14:02:59;;;;;;;;;;;19.30;53.90;;;;;;5041719;28;1905;-68
2021/04/28 14:05:25;;;;;;;;;;;19.30;53.90;;;;;;5047325;28;1422;-69
2021/04/28 14:07:50;;;;;;;;;;;19.30;53.90;;;;;;5051970;28;1425;-69
2021/04/28 14:10:16;;;;;;;;;;;19.30;53.90;;;;;;5032553;28;1925;-69
2021/04/28 14:12:44;;;;;;;;;;;19.20;53.90;;;;;;5045024;28;1360;-69
2021/04/28 14:15:09;;;;;;;;;;;19.30;54.00;;;;;;5045698;28;1674;-69
2021/04/28 14:17:35;;;;;;;;;;;19.20;54.00;;;;;;5051912;28;1449;-69
2021/04/28 14:20:00;;;;;;;;;;;19.30;54.10;;;;;;5051743;28;1382;-69
2021/04/28 14:22:26;;;;;;;;;;;19.20;54.00;;;;;;5049552;28;1317;-69
2021/04/28 14:24:51;;;;;;;;;;;19.30;54.10;;;;;;5045329;28;1954;-67
2021/04/28 14:27:17;;;;;;;;;;;19.20;54.10;;;;;;5048753;28;1563;-67
2021/04/28 14:29:42;;;;;;;;;;;19.30;54.20;;;;;;5043800;28;1168;-67